Latest Weather Observations for Coffs Harbour

IDN60801

Issued at 2:03 pm EDT Monday 23 March 2015 (issued every 30 minutes, with the page automatically refreshed every 10 minutes)

About weather observations | Map of weather stations | Latest weather observations for NSW | Other Formats
Station Details ID: 059040 Name: COFFS HARBOUR MO Lat: -30.31 Lon: 153.12 Height: 5.0 m
Data from the previous 72 hours. | See also: Recent months at Coffs Harbour
Date/Time
EDT
Temp
°C
App
Temp
°C
Dew
Point
Rel
Hum
%
Delta-T
°C
Wind Press
QNH
hPa
Press
MSL
hPa
Rain
since 9 am
mm
Dir
 
Spd
km/h
Gust
km/h
Spd
kts
Gust
kts
23/02:00pm 25.9 26.2 20.5 72 3.5 NE 19 26 10 14 - - 0.0
23/01:30pm 25.1 25.4 19.7 72 3.5 NE 17 28 9 15 - - 0.0
23/01:00pm 25.0 25.5 20.0 74 3.2 ENE 17 22 9 12 - - 0.0
23/12:30pm 24.5 25.2 19.6 74 3.2 E 15 19 8 10 - - 0.0
23/12:00pm 24.3 25.0 18.9 72 3.4 ESE 13 17 7 9 - - 0.0
23/11:30am 24.0 25.8 20.3 80 2.4 E 11 13 6 7 - - 0.0
23/11:00am 23.1 26.4 19.9 82 2.1 SW 2 7 1 4 - - 0.0
23/10:00am 20.2 23.0 19.7 97 0.3 NNW 4 7 2 4 - - 0.0
23/09:00am 19.1 20.9 18.8 98 0.2 WSW 7 13 4 7 - - 9.6
23/08:30am 18.8 20.1 18.5 98 0.2 WNW 9 13 5 7 - - 9.6
23/08:00am 18.5 19.0 18.3 99 0.1 WSW 13 17 7 9 - - 9.6
23/07:30am 18.3 19.8 18.1 99 0.1 WSW 7 9 4 5 - - 9.6
23/07:00am 17.9 19.8 17.6 98 0.2 WNW 4 7 2 4 - - 9.6
23/06:30am 18.2 19.3 17.9 98 0.2 SW 9 13 5 7 - - 9.6
23/06:00am 18.5 19.2 18.0 97 0.3 SW 11 13 6 7 - - 9.6
23/05:30am 18.7 20.4 18.0 96 0.4 SSW 6 9 3 5 - - 9.6
23/05:00am 18.9 18.9 18.2 96 0.4 SW 15 19 8 10 - - 9.6
23/04:30am 18.9 19.0 18.4 97 0.3 SW 15 17 8 9 - - 9.6
23/04:00am 18.6 19.4 18.1 97 0.3 SW 11 17 6 9 - - 9.6
23/03:30am 18.7 19.5 18.2 97 0.3 SW 11 15 6 8 - - 9.6
23/03:00am 18.8 19.2 18.1 96 0.4 SW 13 17 7 9 - - 9.6
23/02:30am 18.7 18.6 17.9 95 0.5 WSW 15 26 8 14 - - 9.6
23/02:00am 18.6 19.1 18.3 98 0.2 SW 13 19 7 10 - - 9.6
23/01:30am 18.6 19.0 18.1 97 0.3 WSW 13 15 7 8 - - 9.6
23/01:00am 18.8 18.9 18.3 97 0.3 WSW 15 19 8 10 - - 9.6
23/12:30am 18.9 19.0 18.4 97 0.3 WSW 15 20 8 11 - - 9.6
23/12:00am 19.0 19.5 18.3 96 0.4 SW 13 15 7 8 - - 9.6
 
Date/Time
EDT
Temp
°C
App
Temp
°C
Dew
Point
Rel
Hum
%
Delta-T
°C
Wind Press
QNH
hPa
Press
MSL
hPa
Rain
since 9 am
mm
Dir
 
Spd
km/h
Gust
km/h
Spd
kts
Gust
kts
22/11:30pm 19.1 20.4 18.4 96 0.4 SW 9 15 5 8 - - 8.2
22/11:00pm 18.9 18.7 18.4 97 0.3 SW 17 20 9 11 - - 8.2
22/10:30pm 19.0 18.7 18.3 96 0.4 SW 17 22 9 12 - - 7.8
22/09:30pm 19.2 19.8 18.5 96 0.4 WSW 13 19 7 10 - - 6.4
22/09:00pm 19.4 20.0 18.7 96 0.4 WSW 13 17 7 9 - - 6.4
22/08:30pm 19.6 21.1 18.9 96 0.4 WSW 9 13 5 7 - - 6.0
22/08:00pm 19.6 20.3 18.9 96 0.4 WSW 13 17 7 9 - - 6.0
22/07:30pm 19.7 20.5 19.0 96 0.4 SW 13 22 7 12 - - 5.8
22/07:00pm 20.1 21.4 19.3 95 0.5 WSW 11 13 6 7 - - 5.8
22/06:30pm 20.3 21.7 19.5 95 0.5 WSW 11 17 6 9 - - 5.8
22/05:30pm 20.5 21.7 20.0 97 0.3 NW 13 15 7 8 - - 5.8
22/05:00pm 20.4 22.6 19.7 96 0.4 WNW 7 11 4 6 - - 5.6
22/04:30pm 20.5 20.7 19.3 93 0.8 SSW 17 20 9 11 - - 2.4
22/04:00pm 21.3 20.6 19.4 89 1.2 S 22 32 12 17 - - 1.4
22/03:30pm 22.7 22.0 18.3 76 2.8 S 19 24 10 13 - - 0.0
22/03:00pm 23.2 23.6 18.9 77 2.7 S 15 22 8 12 - - 0.0
22/02:30pm 22.8 22.7 18.8 78 2.5 SW 17 22 9 12 - - 0.0
22/02:00pm 22.0 21.2 18.4 80 2.3 SW 20 28 11 15 - - 0.0
22/01:30pm 21.8 20.0 17.8 78 2.5 SW 24 32 13 17 - - 0.0
22/01:00pm 21.0 18.6 18.2 84 1.7 SW 28 35 15 19 - - 0.0
22/12:30pm 20.4 18.1 18.5 89 1.2 SW 28 37 15 20 - - 0.0
22/12:00pm 21.2 17.9 18.0 82 2.0 SW 32 41 17 22 - - 0.0
22/11:30am 21.5 18.4 18.3 82 2.0 SW 32 41 17 22 - - 0.0
22/11:00am 21.8 18.5 18.0 79 2.4 SW 32 50 17 27 - - 0.0
22/10:58am 21.9 19.2 18.5 81 2.1 SW 30 50 16 27 - - 0.0
22/10:30am 22.6 20.3 19.4 82 2.0 SW 30 43 16 23 - - 0.0
22/10:00am 22.9 21.4 19.5 81 2.2 SW 26 33 14 18 - - 0.0
22/09:30am 23.4 21.4 20.0 81 2.2 SW 30 39 16 21 - - 0.0
22/09:00am 22.5 21.8 20.2 87 1.5 SW 24 35 13 19 - - 22.8
22/08:30am 22.2 21.4 20.1 88 1.4 SW 24 33 13 18 - - 22.8
22/08:00am 22.1 22.7 20.2 89 1.2 WSW 17 24 9 13 - - 22.8
22/07:30am 21.2 22.5 20.2 94 0.6 WSW 13 22 7 12 - - 22.8
22/07:00am 20.7 21.5 19.9 95 0.5 WSW 15 19 8 10 - - 22.8
22/06:30am 20.6 21.8 19.9 96 0.4 SW 13 15 7 8 - - 22.8
22/06:00am 20.6 21.8 19.9 96 0.4 SW 13 17 7 9 - - 22.8
22/05:30am 20.6 22.2 19.9 96 0.4 SW 11 15 6 8 - - 22.8
22/05:00am 21.0 22.7 20.2 95 0.5 S 11 13 6 7 - - 22.8
22/04:30am 20.7 22.8 20.2 97 0.3 W 9 11 5 6 - - 22.8
22/04:00am 20.6 22.7 20.1 97 0.3 W 9 13 5 7 - - 22.8
22/03:30am 20.6 22.3 20.1 97 0.3 WNW 11 13 6 7 - - 22.6
22/03:00am 20.7 24.4 20.0 96 0.4 CALM 0 0 0 0 - - 22.6
22/02:30am 20.9 22.6 20.1 95 0.5 W 11 15 6 8 - - 22.6
22/02:00am 21.1 23.6 20.3 95 0.5 S 7 15 4 8 - - 22.6
22/01:30am 21.1 24.6 20.4 96 0.5 WNW 2 7 1 4 - - 22.6
22/01:00am 21.1 22.9 20.3 95 0.5 W 11 15 6 8 - - 22.4
22/12:30am 21.1 22.4 20.1 94 0.6 WSW 13 17 7 9 - - 22.4
22/12:00am 21.2 22.1 20.0 93 0.8 SSW 15 19 8 10 - - 22.4
 
Date/Time
EDT
Temp
°C
App
Temp
°C
Dew
Point
Rel
Hum
%
Delta-T
°C
Wind Press
QNH
hPa
Press
MSL
hPa
Rain
since 9 am
mm
Dir
 
Spd
km/h
Gust
km/h
Spd
kts
Gust
kts
21/11:30pm 21.2 21.1 20.0 93 0.8 SW 20 28 11 15 - - 22.4
21/11:00pm 21.2 20.4 20.0 93 0.8 SW 24 33 13 18 - - 22.4
21/10:30pm 21.3 21.8 20.1 93 0.8 SW 17 22 9 12 - - 22.4
21/10:00pm 21.4 22.0 20.2 93 0.8 WSW 17 22 9 12 - - 22.4
21/09:30pm 21.2 22.2 20.2 94 0.6 W 15 20 8 11 - - 22.4
21/09:00pm 21.1 20.8 20.3 95 0.5 WSW 22 30 12 16 - - 22.4
21/08:30pm 21.2 21.3 20.4 95 0.5 SW 20 28 11 15 - - 22.4
21/08:00pm 21.1 21.2 20.3 95 0.5 SW 20 28 11 15 - - 22.4
21/07:30pm 21.1 20.8 20.4 96 0.5 SW 22 33 12 18 - - 22.4
21/07:00pm 21.0 21.2 20.5 97 0.3 SW 20 30 11 16 - - 22.4
21/06:30pm 21.1 20.5 20.6 97 0.3 WSW 24 32 13 17 - - 22.0
21/06:00pm 21.2 21.1 20.7 97 0.3 WSW 22 33 12 18 - - 21.4
21/05:30pm 21.3 21.6 20.8 97 0.3 WSW 20 28 11 15 - - 19.0
21/05:00pm 21.3 22.2 20.8 97 0.3 WSW 17 26 9 14 - - 17.8
21/04:30pm 21.3 22.6 20.8 97 0.3 WSW 15 26 8 14 - - 16.2
21/04:00pm 21.3 21.8 20.8 97 0.3 WSW 19 26 10 14 - - 10.8
21/03:30pm 21.5 19.9 20.8 96 0.5 WSW 30 41 16 22 - - 6.8
21/03:00pm 22.1 21.7 20.9 93 0.8 SW 24 33 13 18 - - 0.4
21/02:30pm 21.6 21.9 20.8 95 0.5 SW 20 28 11 15 - - 0.4
21/02:00pm 21.9 21.0 20.7 93 0.8 SW 26 33 14 18 - - 0.0
21/01:30pm 22.2 20.7 20.3 89 1.2 SW 28 35 15 19 - - 0.0
21/01:00pm 22.0 20.9 20.3 90 1.1 SW 26 39 14 21 - - 0.0
21/12:30pm 22.6 20.5 19.8 84 1.8 SW 30 37 16 20 - - 0.0
21/12:00pm 22.4 20.6 19.6 84 1.8 SW 28 37 15 20 - - 0.0
21/11:30am 22.5 19.9 19.5 83 1.9 SW 32 43 17 23 - - 0.0
21/11:00am 22.8 20.2 19.6 82 2.0 SW 32 43 17 23 - - 0.0
21/10:30am 22.6 19.7 19.2 81 2.2 WSW 33 43 18 23 - - 0.0
21/10:00am 23.2 19.7 18.7 76 2.8 SW 35 50 19 27 - - 0.0
21/09:53am 23.5 20.6 18.8 75 3.0 SW 32 50 17 27 - - 0.0
21/09:30am 23.1 19.6 18.8 77 2.7 SW 35 46 19 25 - - 0.0
21/09:00am 22.9 20.0 18.9 78 2.5 SW 32 46 17 25 - - 0.0
21/08:30am 22.7 20.1 18.7 78 2.5 SW 30 43 16 23 - - 0.0
21/08:00am 22.4 19.9 18.8 80 2.3 SW 30 41 16 22 - - 0.0
21/07:30am 22.3 19.9 19.1 82 2.0 SSW 30 39 16 21 - - 0.0
21/07:00am 23.3 20.7 18.6 75 3.0 SW 30 41 16 22 - - 0.0
21/06:30am 23.3 21.5 18.8 76 2.8 SW 26 39 14 21 - - 0.0
21/06:00am 23.3 20.4 18.8 76 2.8 SW 32 41 17 22 - - 0.0
21/05:30am 23.3 21.2 19.0 77 2.7 SW 28 37 15 20 - - 0.0
21/05:00am 23.4 21.4 19.1 77 2.7 SW 28 35 15 19 - - 0.0
21/04:30am 23.6 21.7 19.3 77 2.7 SSW 28 39 15 21 - - 0.0
21/04:00am 24.0 22.6 19.7 77 2.8 SSW 26 35 14 19 - - 0.0
21/03:30am 24.3 23.1 20.0 77 2.8 SSW 26 37 14 20 - - 0.0
21/03:00am 24.7 24.1 20.4 77 2.8 SSW 24 32 13 17 - - 0.0
21/02:30am 24.8 22.3 20.9 79 2.6 S 35 44 19 24 - - 0.0
21/02:00am 25.1 22.3 21.0 78 2.7 SSW 37 48 20 26 - - 0.0
21/01:30am 25.3 23.5 21.2 78 2.7 SSW 32 43 17 23 - - 0.0
21/01:01am 25.4 22.6 21.1 77 2.8 SSW 37 56 20 30 - - 0.0
21/01:00am 25.3 22.1 21.0 77 2.8 SSW 39 56 21 30 - - 0.0
21/12:30am 25.4 22.1 22.3 83 2.1 SSW 43 61 23 33 - - 0.0
21/12:13am 26.0 25.4 23.7 87 1.6 SW 33 54 18 29 - - 0.0
21/12:00am 26.1 27.4 24.1 89 1.4 SW 24 33 13 18 - - 0.0
 
Date/Time
EDT
Temp
°C
App
Temp
°C
Dew
Point
Rel
Hum
%
Delta-T
°C
Wind Press
QNH
hPa
Press
MSL
hPa
Rain
since 9 am
mm
Dir
 
Spd
km/h
Gust
km/h
Spd
kts
Gust
kts
20/11:30pm 25.6 28.7 23.6 89 1.4 N 13 19 7 10 - - 0.0
20/11:00pm 25.9 28.0 23.8 88 1.4 NE 19 24 10 13 - - 0.0
20/10:30pm 26.1 27.9 23.6 86 1.7 NNE 20 26 11 14 - - 0.0
20/10:00pm 26.2 27.6 23.5 85 1.8 NE 22 26 12 14 - - 0.0
20/09:30pm 26.0 28.3 23.5 86 1.7 NNE 17 22 9 12 - - 0.0
20/09:00pm 26.5 28.9 23.6 84 2.0 NNE 17 24 9 13 - - 0.0
20/08:30pm 26.1 28.2 23.8 87 1.6 NNE 19 24 10 13 - - 0.0
20/08:00pm 26.0 28.0 23.9 88 1.4 NNE 20 26 11 14 - - 0.0
20/07:30pm 26.3 28.1 24.2 88 1.4 NNE 22 30 12 16 - - 0.0
20/07:00pm 26.6 27.7 24.3 87 1.6 NNE 26 35 14 19 - - 0.0
20/06:30pm 27.0 27.7 24.3 85 1.9 NE 28 35 15 19 - - 0.0
20/06:00pm 27.5 27.7 24.1 82 2.3 NE 30 35 16 19 - - 0.0
20/05:30pm 28.1 27.9 24.1 79 2.8 NE 32 41 17 22 - - 0.0
20/05:00pm 28.8 29.6 24.4 77 3.1 NE 28 37 15 20 - - 0.0
20/04:30pm 28.8 28.8 24.4 77 3.1 NE 32 41 17 22 - - 0.0
20/04:00pm 28.8 28.4 24.1 76 3.3 NNE 33 44 18 24 - - 0.0
20/03:30pm 28.5 28.1 24.1 77 3.0 NE 33 46 18 25 - - 0.0
20/03:00pm 29.3 29.0 24.2 74 3.5 NE 33 44 18 24 - - 0.0
20/02:30pm 29.0 28.5 23.9 74 3.5 NE 33 46 18 25 - - 0.0

Other Formats:

Comma delimited format used in spreadsheet applications
http://www.bom.gov.au/fwo/IDN60801/IDN60801.94791.axf

JavaScript Object Notation format (JSON) in row-major order
http://www.bom.gov.au/fwo/IDN60801/IDN60801.94791.json